Marienberg, Germany

7:49 AM CEST on September 19, 2014 (GMT +0200)
ISACHSEN87 | Change Station
CLOSE
Current Station
Personal Weather Station
Location: Annaberg-Buchholz, SACHSEN
Elevation: 2113 ft
Nearby Weather Stations

Elev 2113 ft 50.58 °N, 13.01 °E | Updated 4 minutes ago

Light Rain
Light Rain
55.8 °F
Feels Like 55.8 °F
N
3.8
Wind Variable Wind from SW
Gusts 6.0 mph

Today
High -- | Low -- °F
--% Chance of Precip.
Yesterday
High -- | Low -- °F
Precip. -- in
6:48 AM 7:12 PM
Waning Crescent, 21% visible
Pressure 29.98 in
Visibility 6.2 miles
Clouds Scattered Clouds 3600 ft
Dew Point 53 °F
Humidity 89%
Rainfall 0.00 in
Snow Depth Not available.
UV 0 out of 12
Pollen Not available.
Air Quality Not available.
Flu Activity Not available.
METAR LKKV 190500Z VRB02KT 9999 -RA SCT036 11/11 Q1015

More Conditions Fewer Conditions

Pressure 29.98 in
Visibility 6.2 miles
Clouds Scattered Clouds 3600 ft
Dew Point 53 °F
Humidity 89%
Rainfall 0.00 in
Snow Depth Not available.
UV 0 out of 12
Pollen Not available.
Air Quality Not available.
Flu Activity Not available.
METAR LKKV 190500Z VRB02KT 9999 -RA SCT036 11/11 Q1015

More Conditions Fewer Conditions

10-Day Weather Forecast

Almanac

Astronomy

Sep. 19, 2014 Rise Set
Actual Time 6:48 AM CEST 7:12 PM CEST
Civil Twilight 6:15 AM CEST 7:45 PM CEST
Nautical Twilight 5:36 AM CEST 8:24 PM CEST
Astronomical Twilight 4:55 AM CEST 9:05 PM CEST
Moon 1:55 AM CEST 4:51 PM CEST
Length of Visible Light 13h 29m
Length of Day
12h 24m
Tomorrow will be 3m 47s shorter.
Waning Crescent, 21% of the Moon is Illuminated
Today
Waning Crescent
Sep 24
New
Oct 1
First Quarter
Oct 8
Full
Oct 15
Last Quarter

Yesterday's Extremes

Country Highs Country Lows

Community

WunderPhotos

Upload Photos

1,754,573 photos uploaded!

Nearby

Snow Depth

Not available.

Earthquake Activity

City Distance Mag. Time & Date
No recent earthquake activity has been reported nearby.
Minimum magnitude displayed is 2.5.

Coastal Water Temperatures

Place Temperature
No Stations Reporting

Nearby Weather Stations